Terminal Aerodrome Forecast
Issued by NWS Wakefield, VA

Home | Current Version | Previous Version | Text Only | Print | Product List | Glossary On
Versions: 1 2 3 4 5 6 7 8 9 10 11 12 13 14 15
000
FTUS41 KAKQ 251155 RRB
TAFSBY
TAF
KSBY 251155Z 2512/2612 07005KT P6SM OVC120
     FM251800 20005KT P6SM OVC060
     FM252300 16003KT 5SM -RA BR SCT015 OVC025
     FM260200 03004KT 4SM -RA BR BKN007 OVC015=

USA.gov is the U.S. government's official web portal to all federal, state and local government web resources and services.